createdAt,value
2019-02-11T06:28:18.580Z,1003.37
2019-02-11T06:31:18.471Z,1003.33
2019-02-11T06:32:18.458Z,1003.35
2019-02-11T06:34:18.423Z,1003.38
2019-02-11T06:35:18.407Z,1003.40
2019-02-11T06:37:18.387Z,1003.49
2019-02-11T06:41:18.439Z,1003.54
2019-02-11T06:43:18.312Z,1003.62
2019-02-11T06:44:18.314Z,1003.59
2019-02-11T06:46:18.282Z,1003.57
2019-02-11T06:48:18.273Z,1003.69
2019-02-11T06:49:18.247Z,1003.75
2019-02-11T06:50:18.240Z,1003.74
2019-02-11T06:51:18.306Z,1003.75
2019-02-11T06:52:18.212Z,1003.79
2019-02-11T06:53:18.212Z,1003.83
2019-02-11T06:55:18.191Z,1003.93
2019-02-11T06:57:18.160Z,1003.92
2019-02-11T06:58:18.200Z,1003.95
2019-02-11T06:59:18.142Z,1003.93
2019-02-11T07:00:18.123Z,1003.98
2019-02-11T07:01:18.131Z,1004.08
2019-02-11T07:02:18.130Z,1004.09
2019-02-11T07:03:18.425Z,1004.10
2019-02-11T07:04:18.090Z,1004.16
2019-02-11T07:16:17.965Z,1004.68
2019-02-11T07:17:17.976Z,1004.69
2019-02-11T07:18:17.945Z,1004.71
2019-02-11T07:30:17.806Z,1004.94
2019-02-11T07:31:17.831Z,1004.96
2019-02-11T07:32:17.779Z,1004.97
2019-02-11T07:33:17.797Z,1005.03
2019-02-11T07:34:17.753Z,1005.03
2019-02-11T07:35:17.759Z,1004.98
2019-02-11T07:36:18.121Z,1005.06
2019-02-11T07:37:17.729Z,1005.10
2019-02-11T07:38:17.719Z,1005.12
2019-02-11T07:39:17.741Z,1005.16
2019-02-11T07:40:17.711Z,1005.21
2019-02-11T07:41:18.804Z,1005.17
2019-02-11T07:42:17.664Z,1005.23
2019-02-11T07:43:17.648Z,1005.25
2019-02-11T07:44:17.654Z,1005.34
2019-02-11T07:45:17.677Z,1005.35
2019-02-11T07:46:17.715Z,1005.32
2019-02-11T07:47:17.607Z,1005.34
2019-02-11T07:48:17.644Z,1005.35
2019-02-11T07:49:17.700Z,1005.42
2019-02-11T07:50:17.587Z,1005.48
2019-02-11T07:51:17.561Z,1005.44
2019-02-11T07:52:17.549Z,1005.51
2019-02-11T07:53:17.567Z,1005.53
2019-02-11T07:54:17.561Z,1005.61
2019-02-11T07:55:18.464Z,1005.64
2019-02-11T07:56:17.517Z,1005.68
2019-02-11T07:57:17.506Z,1005.65
2019-02-11T07:58:17.567Z,1005.73
2019-02-11T07:59:17.487Z,1005.78
2019-02-11T08:00:17.467Z,1005.76
2019-02-11T08:01:17.514Z,1005.78
2019-02-11T08:18:28.024Z,1006.02
2019-02-11T08:19:27.992Z,1006.04
2019-02-11T08:20:27.946Z,1006.10
2019-02-11T08:21:27.945Z,1006.08
2019-02-11T08:22:27.972Z,1006.09
2019-02-11T08:23:27.907Z,1006.14
2019-02-11T08:24:27.888Z,1006.15
2019-02-11T08:25:27.942Z,1006.19
2019-02-11T08:26:27.914Z,1006.21
2019-02-11T08:27:27.866Z,1006.24
2019-02-11T08:28:27.840Z,1006.20
2019-02-11T08:29:27.844Z,1006.17
2019-02-11T08:30:28.179Z,1006.14
2019-02-11T08:31:27.846Z,1006.17
2019-02-11T08:32:27.806Z,1006.19
2019-02-11T08:33:27.807Z,1006.22
2019-02-11T08:34:27.786Z,1006.23
2019-02-11T08:35:29.000Z,1006.24
2019-02-11T08:36:27.756Z,1006.24
2019-02-11T08:37:27.757Z,1006.26
2019-02-11T08:38:27.739Z,1006.23
2019-02-11T08:39:27.739Z,1006.27
2019-02-11T08:40:27.716Z,1006.23
2019-02-11T08:41:28.388Z,1006.23
2019-02-11T08:42:27.748Z,1006.26
2019-02-11T08:43:27.678Z,1006.27
2019-02-11T08:44:27.717Z,1006.27
2019-02-11T08:45:27.662Z,1006.34
2019-02-11T08:46:27.656Z,1006.34
2019-02-11T08:47:27.655Z,1006.38
2019-02-11T08:48:27.952Z,1006.37
2019-02-11T08:49:27.626Z,1006.37
2019-02-11T08:50:27.602Z,1006.41
2019-02-11T08:51:27.599Z,1006.42
2019-02-11T08:52:27.571Z,1006.41
2019-02-11T08:53:27.616Z,1006.50
2019-02-11T08:54:27.559Z,1006.47
2019-02-11T08:55:27.537Z,1006.48
2019-02-11T08:56:27.538Z,1006.47
2019-02-11T08:57:27.526Z,1006.52
2019-02-11T08:58:29.814Z,1006.50
2019-02-11T08:59:27.561Z,1006.59
2019-02-11T09:00:27.756Z,1006.60
2019-02-11T09:01:27.559Z,1006.64
2019-02-11T09:02:27.460Z,1006.66
2019-02-11T09:03:27.454Z,1006.74
2019-02-11T09:04:27.448Z,1006.69
2019-02-11T09:05:27.546Z,1006.83
2019-02-11T09:06:27.413Z,1006.80
2019-02-11T09:07:27.417Z,1006.85
2019-02-11T09:08:27.396Z,1006.83
2019-02-11T09:09:27.382Z,1006.92
2019-02-11T09:10:27.426Z,1006.91
2019-02-11T09:11:27.373Z,1006.97
2019-02-11T09:12:27.345Z,1006.98
2019-02-11T09:13:27.382Z,1006.98
2019-02-11T09:14:27.331Z,1006.93
2019-02-11T09:15:27.323Z,1007.01
2019-02-11T09:16:27.397Z,1007.03
2019-02-11T09:18:27.285Z,1007.09
2019-02-11T09:19:27.287Z,1007.08
2019-02-11T09:20:27.262Z,1007.10
2019-02-11T09:21:27.325Z,1007.14
2019-02-11T09:22:28.234Z,1007.18
2019-02-11T09:23:27.290Z,1007.18
2019-02-11T09:24:27.216Z,1007.21
2019-02-11T09:25:27.258Z,1007.18
2019-02-11T09:26:27.192Z,1007.28
2019-02-11T09:27:27.174Z,1007.28
2019-02-11T09:28:27.178Z,1007.27
2019-02-11T09:29:27.223Z,1007.30
2019-02-11T09:30:27.142Z,1007.31
2019-02-11T09:31:28.596Z,1007.36
2019-02-11T09:32:27.170Z,1007.37
2019-02-11T09:33:27.205Z,1007.46
2019-02-11T09:34:27.103Z,1007.44
2019-02-11T09:35:27.131Z,1007.51
2019-02-11T09:36:27.076Z,1007.52
2019-02-11T09:37:27.086Z,1007.57
2019-02-11T09:38:27.108Z,1007.58
2019-02-11T09:39:27.048Z,1007.60
2019-02-11T09:40:27.057Z,1007.70
2019-02-11T09:41:28.022Z,1007.64
2019-02-11T09:42:27.032Z,1007.58
2019-02-11T09:43:27.010Z,1007.66
2019-02-11T09:44:29.592Z,1007.61
2019-02-11T09:45:26.981Z,1007.68
2019-02-11T09:46:26.965Z,1007.65
2019-02-11T09:47:26.995Z,1007.66
2019-02-11T09:48:26.963Z,1007.70
2019-02-11T09:49:26.962Z,1007.79
2019-02-11T09:50:26.930Z,1007.71
2019-02-11T09:51:26.909Z,1007.76
2019-02-11T09:52:26.937Z,1007.72
2019-02-11T09:53:26.902Z,1007.81
2019-02-11T09:54:27.087Z,1007.85
2019-02-11T09:55:26.937Z,1007.83
2019-02-11T09:56:26.858Z,1007.90
2019-02-11T09:57:27.520Z,1007.93
2019-02-11T09:58:27.028Z,1007.97
2019-02-11T09:59:26.905Z,1007.99
2019-02-11T10:00:27.851Z,1008.04
2019-02-11T10:01:26.859Z,1008.03
2019-02-11T10:02:26.789Z,1008.04
2019-02-11T10:03:28.006Z,1008.02
2019-02-11T10:04:26.764Z,1008.06
2019-02-11T10:05:26.758Z,1008.03
2019-02-11T10:06:26.798Z,1008.00
2019-02-11T10:07:26.735Z,1008.04
2019-02-11T10:08:26.728Z,1008.07
2019-02-11T10:09:26.716Z,1008.08
2019-02-11T10:10:26.729Z,1008.12
2019-02-11T10:11:26.710Z,1008.13
2019-02-11T10:12:26.688Z,1008.13
2019-02-11T10:13:26.669Z,1008.08
2019-02-11T10:14:26.747Z,1008.12
2019-02-11T10:15:26.649Z,1008.20
2019-02-11T10:16:26.688Z,1008.24
2019-02-11T10:17:29.872Z,1008.25
2019-02-11T10:18:26.617Z,1008.26
2019-02-11T10:19:26.949Z,1008.23
2019-02-11T10:20:26.646Z,1008.30
2019-02-11T10:21:26.582Z,1008.31
2019-02-11T10:22:26.587Z,1008.40
2019-02-11T10:23:26.698Z,1008.37
2019-02-11T10:24:26.628Z,1008.42
2019-02-11T10:25:26.567Z,1008.39
2019-02-11T10:26:26.524Z,1008.38
2019-02-11T10:27:26.532Z,1008.41
2019-02-11T10:28:26.514Z,1008.47
2019-02-11T10:29:26.619Z,1008.45
2019-02-11T10:30:26.508Z,1008.51
2019-02-11T10:31:26.473Z,1008.59
2019-02-11T10:32:26.461Z,1008.56
2019-02-11T10:33:26.470Z,1008.55
2019-02-11T10:34:26.509Z,1008.51
2019-02-11T10:35:26.615Z,1008.59
2019-02-11T10:36:26.494Z,1008.56
2019-02-11T10:37:26.407Z,1008.66
2019-02-11T10:38:27.635Z,1008.59
2019-02-11T10:40:26.376Z,1008.62
2019-02-11T10:41:26.369Z,1008.69
2019-02-11T10:42:26.462Z,1008.69
2019-02-11T10:43:26.406Z,1008.69
2019-02-11T10:44:26.348Z,1008.70
2019-02-11T10:45:26.353Z,1008.67
2019-02-11T10:46:26.330Z,1008.72
2019-02-11T10:47:26.322Z,1008.75
2019-02-11T10:48:26.333Z,1008.83
2019-02-11T10:49:26.290Z,1008.83
2019-02-11T10:50:26.308Z,1008.84
2019-02-11T10:51:26.250Z,1008.93
2019-02-11T10:52:26.243Z,1008.91
2019-02-11T10:53:26.230Z,1008.94
2019-02-11T10:54:26.498Z,1008.94
2019-02-11T10:55:26.215Z,1008.98
2019-02-11T10:56:26.210Z,1008.96
2019-02-11T10:57:26.193Z,1008.95
2019-02-11T10:58:26.221Z,1008.94
2019-02-11T10:59:26.179Z,1009.00
2019-02-11T11:00:27.284Z,1009.02
2019-02-11T11:01:26.195Z,1009.03
2019-02-11T11:02:26.143Z,1009.10
2019-02-11T11:03:26.139Z,1009.13
2019-02-11T11:04:26.146Z,1009.10
2019-02-11T11:05:26.122Z,1009.11
2019-02-11T11:06:26.096Z,1009.17
2019-02-11T11:07:26.188Z,1009.18
2019-02-11T11:08:26.153Z,1009.16
2019-02-11T11:09:26.051Z,1009.18
2019-02-11T11:10:26.073Z,1009.20
2019-02-11T11:11:26.064Z,1009.18
2019-02-11T11:12:26.019Z,1009.22
2019-02-11T11:13:26.052Z,1009.24
2019-02-11T11:14:26.086Z,1009.24
2019-02-11T11:15:25.998Z,1009.25
2019-02-11T11:16:29.684Z,1009.21
2019-02-11T11:17:26.009Z,1009.16
2019-02-11T11:18:25.953Z,1009.20
2019-02-11T11:19:25.990Z,1009.26
2019-02-11T11:20:25.935Z,1009.20
2019-02-11T11:21:25.933Z,1009.27
2019-02-11T11:22:25.988Z,1009.25
2019-02-11T11:23:25.969Z,1009.27
2019-02-11T11:24:25.890Z,1009.18
2019-02-11T11:25:25.913Z,1009.19
2019-02-11T11:26:25.955Z,1009.19
2019-02-11T11:27:25.856Z,1009.12
2019-02-11T11:28:25.862Z,1009.15
2019-02-11T11:29:25.855Z,1009.18
2019-02-11T11:30:25.861Z,1009.20
2019-02-11T11:31:25.815Z,1009.28
2019-02-11T11:32:25.934Z,1009.34
2019-02-11T11:33:27.378Z,1009.34
2019-02-11T11:34:25.801Z,1009.37
2019-02-11T11:35:25.781Z,1009.42
2019-02-11T11:36:25.748Z,1009.48
2019-02-11T11:37:25.761Z,1009.40
2019-02-11T11:38:25.738Z,1009.48
2019-02-11T11:39:25.735Z,1009.54
2019-02-11T11:40:25.713Z,1009.55
2019-02-11T11:41:25.708Z,1009.54
2019-02-11T11:42:25.693Z,1009.58
2019-02-11T11:43:25.681Z,1009.59
2019-02-11T11:44:25.762Z,1009.55
2019-02-11T11:45:25.666Z,1009.66
2019-02-11T11:46:25.675Z,1009.66
2019-02-11T11:47:25.646Z,1009.64
2019-02-11T11:48:25.621Z,1009.72
2019-02-11T11:49:25.632Z,1009.64
2019-02-11T11:50:25.762Z,1009.56
2019-02-11T11:51:25.939Z,1009.66
2019-02-11T11:52:25.670Z,1009.69
2019-02-11T11:53:25.794Z,1009.61
2019-02-11T11:54:25.551Z,1009.64
2019-02-11T11:55:25.555Z,1009.65
2019-02-11T11:56:25.535Z,1009.66
2019-02-11T11:57:25.592Z,1009.69
2019-02-11T11:58:26.998Z,1009.68
2019-02-11T11:59:25.522Z,1009.65
2019-02-11T12:00:25.498Z,1009.59
2019-02-11T12:01:25.493Z,1009.63
2019-02-11T12:02:25.479Z,1009.64
2019-02-11T12:03:25.471Z,1009.62
2019-02-11T12:04:25.461Z,1009.60
2019-02-11T12:05:25.515Z,1009.59
2019-02-11T12:06:25.901Z,1009.57
2019-02-11T12:07:25.447Z,1009.54
2019-02-11T12:08:25.446Z,1009.58
2019-02-11T12:09:25.393Z,1009.52
2019-02-11T12:10:25.595Z,1009.56
2019-02-11T12:11:25.382Z,1009.61
2019-02-11T12:12:25.367Z,1009.59
2019-02-11T12:13:25.353Z,1009.64
2019-02-11T12:14:25.336Z,1009.68
2019-02-11T12:15:25.340Z,1009.70
2019-02-11T12:16:25.312Z,1009.75
2019-02-11T12:17:25.327Z,1009.71
2019-02-11T12:18:25.280Z,1009.68
2019-02-11T12:19:25.319Z,1009.73
2019-02-11T12:20:25.281Z,1009.71
2019-02-11T12:21:25.263Z,1009.76
2019-02-11T12:22:25.251Z,1009.77
2019-02-11T12:23:25.241Z,1009.81
2019-02-11T12:24:25.295Z,1009.78
2019-02-11T12:25:25.214Z,1009.82
2019-02-11T12:26:25.211Z,1009.90
2019-02-11T12:27:25.258Z,1010.02
2019-02-11T12:28:25.169Z,1009.98
2019-02-11T12:29:25.180Z,1010.03
2019-02-11T12:30:25.212Z,1010.07
2019-02-11T12:31:25.138Z,1010.04
2019-02-11T12:32:25.145Z,1010.10
2019-02-11T12:33:25.134Z,1010.14
2019-02-11T12:34:25.127Z,1010.16
2019-02-11T12:35:25.177Z,1010.11
2019-02-11T12:36:25.088Z,1010.18
2019-02-11T12:37:25.070Z,1010.16
2019-02-11T12:38:25.085Z,1010.18
2019-02-11T12:39:25.054Z,1010.16
2019-02-11T12:40:25.101Z,1010.14
2019-02-11T12:41:25.047Z,1010.16
2019-02-11T12:42:25.011Z,1010.12
2019-02-11T12:43:25.022Z,1010.18
2019-02-11T12:44:24.996Z,1010.19
2019-02-11T12:45:25.016Z,1010.27
2019-02-11T12:46:24.979Z,1010.23
2019-02-11T12:47:24.960Z,1010.24
2019-02-11T12:48:24.997Z,1010.26
2019-02-11T12:49:24.957Z,1010.25
2019-02-11T12:50:24.941Z,1010.28
2019-02-11T12:51:24.929Z,1010.31
2019-02-11T12:52:24.904Z,1010.31
2019-02-11T12:53:24.889Z,1010.29
2019-02-11T12:54:25.855Z,1010.44
2019-02-11T12:55:24.875Z,1010.44
2019-02-11T12:56:24.869Z,1010.44
2019-02-11T12:57:24.858Z,1010.45
2019-02-11T12:58:26.438Z,1010.47
2019-02-11T12:59:24.828Z,1010.48
2019-02-11T13:00:24.851Z,1010.53
2019-02-11T13:01:24.809Z,1010.49
2019-02-11T13:02:24.804Z,1010.57
2019-02-11T13:03:24.791Z,1010.58
2019-02-11T13:04:24.786Z,1010.59
2019-02-11T13:05:43.147Z,1010.58
2019-02-11T13:06:46.729Z,1010.56
2019-02-11T13:07:46.645Z,1010.57
2019-02-11T13:08:46.625Z,1010.59
2019-02-11T13:09:46.614Z,1010.56
2019-02-11T13:10:46.629Z,1010.64
2019-02-11T13:11:46.592Z,1010.75
2019-02-11T13:12:46.558Z,1010.72
2019-02-11T13:13:46.662Z,1010.68
2019-02-11T13:14:46.563Z,1010.77
2019-02-11T13:16:00.015Z,1010.77
2019-02-11T13:17:15.524Z,1010.78
2019-02-11T13:18:31.948Z,1010.78
2019-02-11T13:19:31.642Z,1010.83
2019-02-11T13:20:31.657Z,1010.88
2019-02-11T13:21:31.606Z,1010.93
2019-02-11T13:22:31.608Z,1010.88
2019-02-11T13:23:31.606Z,1010.84
2019-02-11T13:24:31.614Z,1010.91
2019-02-11T13:25:31.581Z,1010.92
2019-02-11T13:26:31.573Z,1010.90
2019-02-11T13:27:31.546Z,1010.89
2019-02-11T13:28:31.538Z,1010.86
2019-02-11T13:29:31.533Z,1010.94
2019-02-11T13:30:31.535Z,1010.94
2019-02-11T13:31:31.530Z,1010.89
2019-02-11T13:32:31.518Z,1010.92
2019-02-11T13:33:31.469Z,1010.87
2019-02-11T13:34:31.469Z,1010.90
2019-02-11T13:35:31.502Z,1010.94
2019-02-11T13:36:31.457Z,1010.95
2019-02-11T13:37:31.443Z,1010.94
2019-02-11T13:38:31.514Z,1010.96
2019-02-11T13:39:31.473Z,1010.96
2019-02-11T13:40:31.405Z,1011.01
2019-02-11T13:41:34.053Z,1011.03
2019-02-11T13:42:31.393Z,1011.04
2019-02-11T13:43:31.378Z,1011.04
2019-02-11T13:44:31.377Z,1011.05
2019-02-11T13:45:31.372Z,1011.13
2019-02-11T13:46:31.348Z,1011.12
2019-02-11T14:01:37.659Z,1011.47
2019-02-11T14:02:37.652Z,1011.57
2019-02-11T14:03:37.649Z,1011.58
2019-02-11T14:04:37.651Z,1011.63
2019-02-11T14:05:37.624Z,1011.59
2019-02-11T14:06:37.596Z,1011.68
2019-02-11T14:07:37.656Z,1011.68
2019-02-11T14:08:37.612Z,1011.66
2019-02-11T14:09:37.588Z,1011.70
2019-02-11T14:10:37.555Z,1011.70
2019-02-11T14:11:37.598Z,1011.75
2019-02-11T14:12:37.528Z,1011.76
2019-02-11T14:13:37.535Z,1011.73
2019-02-11T14:14:37.511Z,1011.72
2019-02-11T14:15:37.525Z,1011.74
2019-02-11T14:16:37.488Z,1011.71
2019-02-11T14:17:37.496Z,1011.80
2019-02-11T14:18:37.504Z,1011.76
2019-02-11T14:19:37.486Z,1011.79
2019-02-11T14:20:37.436Z,1011.89
2019-02-11T14:21:37.638Z,1011.86
2019-02-11T14:22:37.434Z,1011.93
2019-02-11T14:23:37.429Z,1012.05
2019-02-11T14:24:37.436Z,1012.01
2019-02-11T14:25:43.645Z,1012.06
2019-02-11T14:26:59.661Z,1012.23
2019-02-11T14:27:59.634Z,1012.21
2019-02-11T14:28:59.638Z,1012.24
2019-02-11T14:29:59.608Z,1012.29
2019-02-11T14:30:59.596Z,1012.28
2019-02-11T14:31:59.669Z,1012.37
2019-02-11T14:32:59.586Z,1012.29
2019-02-11T14:33:59.559Z,1012.35
2019-02-11T14:34:59.584Z,1012.35
2019-02-11T14:35:59.542Z,1012.31
2019-02-11T14:36:59.529Z,1012.30
2019-02-11T14:38:02.496Z,1012.31
2019-02-11T14:38:59.509Z,1012.32
2019-02-11T14:39:59.485Z,1012.27
2019-02-11T14:40:59.479Z,1012.27
2019-02-11T14:41:59.492Z,1012.35
2019-02-11T14:42:59.519Z,1012.36
2019-02-11T14:43:59.472Z,1012.36
2019-02-11T14:44:59.473Z,1012.40
2019-02-11T14:45:59.432Z,1012.39
2019-02-11T14:46:59.422Z,1012.41
2019-02-11T14:47:59.398Z,1012.47
2019-02-11T14:48:59.414Z,1012.47
2019-02-11T14:49:59.376Z,1012.49
2019-02-11T14:50:59.357Z,1012.48
2019-02-11T14:51:59.356Z,1012.54
2019-02-11T14:52:59.337Z,1012.52
2019-02-11T14:53:59.336Z,1012.56
2019-02-11T14:54:59.325Z,1012.59
2019-02-11T14:55:59.323Z,1012.60
2019-02-11T14:56:59.292Z,1012.58
2019-02-11T14:57:59.276Z,1012.58
2019-02-11T14:58:59.288Z,1012.62
2019-02-11T14:59:59.273Z,1012.69
2019-02-11T15:00:59.259Z,1012.68
2019-02-11T15:01:59.240Z,1012.67
2019-02-11T15:02:59.327Z,1012.62
2019-02-11T15:03:59.274Z,1012.69
2019-02-11T15:04:59.207Z,1012.67
2019-02-11T15:05:59.190Z,1012.70
2019-02-11T15:06:59.181Z,1012.74
2019-02-11T15:07:59.172Z,1012.70
2019-02-11T15:08:59.160Z,1012.70
2019-02-11T15:09:59.150Z,1012.67
2019-02-11T15:10:59.134Z,1012.62
2019-02-11T15:11:59.262Z,1012.59
2019-02-11T15:12:59.110Z,1012.62
2019-02-11T15:13:59.107Z,1012.64
2019-02-11T15:14:59.098Z,1012.73
2019-02-11T15:15:59.141Z,1012.69
2019-02-11T15:16:59.070Z,1012.72
2019-02-11T15:17:59.273Z,1012.76
2019-02-11T15:18:59.075Z,1012.76
2019-02-11T15:19:59.043Z,1012.79
2019-02-11T15:20:59.237Z,1012.76
2019-02-11T15:21:59.008Z,1012.75
2019-02-11T15:22:59.016Z,1012.78
2019-02-11T15:23:58.992Z,1012.78
2019-02-11T15:24:58.973Z,1012.84
2019-02-11T15:25:59.041Z,1012.86
2019-02-11T15:26:58.967Z,1012.93
2019-02-11T15:27:58.947Z,1012.95
2019-02-11T15:28:58.934Z,1013.00
2019-02-11T15:29:58.927Z,1013.01
2019-02-11T15:30:58.902Z,1013.07
2019-02-11T15:31:58.893Z,1013.11
2019-02-11T15:32:58.890Z,1013.13
2019-02-11T15:33:58.875Z,1013.13
2019-02-11T15:34:58.868Z,1013.22
2019-02-11T15:35:58.852Z,1013.24
2019-02-11T15:36:58.858Z,1013.21
2019-02-11T15:37:58.997Z,1013.09
2019-02-11T15:38:58.839Z,1013.05
2019-02-11T15:39:58.860Z,1013.04
2019-02-11T15:40:58.798Z,1013.04
2019-02-11T15:41:58.776Z,1013.14
2019-02-11T15:42:58.766Z,1013.21
2019-02-11T15:43:58.756Z,1013.26
2019-02-11T15:44:58.761Z,1013.24
2019-02-11T15:45:58.754Z,1013.32
2019-02-11T15:46:58.726Z,1013.37
2019-02-11T15:47:58.731Z,1013.42
2019-02-11T15:48:58.742Z,1013.40
2019-02-11T15:49:58.692Z,1013.48
2019-02-11T15:50:58.674Z,1013.54
2019-02-11T15:51:58.665Z,1013.58
2019-02-11T15:52:59.046Z,1013.59
2019-02-11T15:53:58.646Z,1013.63
2019-02-11T15:54:58.629Z,1013.69
2019-02-11T15:55:58.627Z,1013.68
2019-02-11T15:56:58.629Z,1013.72
2019-02-11T15:57:58.599Z,1013.80
2019-02-11T15:58:58.597Z,1013.81
2019-02-11T15:59:58.580Z,1013.81
2019-02-11T16:00:58.580Z,1013.84
2019-02-11T16:01:58.555Z,1013.85
2019-02-11T16:02:58.540Z,1013.86
2019-02-11T16:03:59.888Z,1013.82
2019-02-11T16:05:02.207Z,1013.85
2019-02-11T16:06:00.055Z,1013.91
2019-02-11T16:07:20.651Z,1013.91
2019-02-11T16:08:20.624Z,1013.88
2019-02-11T16:09:20.611Z,1013.95
2019-02-11T16:10:20.598Z,1013.93
2019-02-11T16:11:20.578Z,1013.94
2019-02-11T16:12:20.580Z,1013.94
2019-02-11T16:13:20.551Z,1014.01
2019-02-11T16:14:20.540Z,1014.02
2019-02-11T16:15:20.533Z,1013.99
2019-02-11T16:16:20.823Z,1014.03
2019-02-11T16:17:20.522Z,1014.04
2019-02-11T16:18:20.530Z,1014.10
2019-02-11T16:19:20.496Z,1014.19
2019-02-11T16:20:20.501Z,1014.24
2019-02-11T16:21:20.469Z,1014.21
2019-02-11T16:22:20.482Z,1014.23
2019-02-11T16:23:20.451Z,1014.28
2019-02-11T16:24:20.437Z,1014.36
2019-02-11T16:25:20.422Z,1014.35
2019-02-11T16:35:20.324Z,1014.65
2019-02-11T16:36:20.306Z,1014.70
2019-02-11T16:39:20.283Z,1014.84
2019-02-11T16:43:20.232Z,1015.03
2019-02-11T16:44:20.221Z,1015.05
2019-02-11T16:48:20.307Z,1015.15
2019-02-11T16:54:20.147Z,1015.40
